Time;durP1;ratioP1;P1;durP2;ratioP2;P2;SDS_P1;SDS_P2;PMS_P1;PMS_P2;Temp;Humidity;BMP_temperature;BMP_pressure;BME280_temperature;BME280_humidity;BME280_pressure;Samples;Min_cycle;Max_cycle;Signal;HPM_P1;HPM_P2
2021/12/22 00:01:50;;;;;;;33.30;18.17;;;;;;;-4.90;100.00;95961.72;5000222;28;20187;-80
2021/12/22 00:04:15;;;;;;;31.17;18.37;;;;;;;-4.98;100.00;95956.25;5001549;28;20237;-80
2021/12/22 00:06:41;;;;;;;34.53;18.90;;;;;;;-5.04;100.00;95960.06;5000402;28;20183;-80
2021/12/22 00:09:08;;;;;;;34.23;20.20;;;;;;;-5.07;100.00;95956.13;5001434;28;20191;-80
2021/12/22 00:11:33;;;;;;;33.17;18.63;;;;;;;-5.07;100.00;95961.44;5002184;28;20222;-80
2021/12/22 00:13:58;;;;;;;29.87;18.03;;;;;;;-5.07;100.00;95966.00;5017802;28;20253;-80
2021/12/22 00:16:24;;;;;;;38.43;19.90;;;;;;;-5.05;100.00;95969.94;5002096;28;20207;-67
2021/12/22 00:18:50;;;;;;;30.47;18.00;;;;;;;-4.95;100.00;95972.41;5016004;28;20234;-61
2021/12/22 00:21:15;;;;;;;34.67;20.43;;;;;;;-4.96;100.00;95970.06;4998959;28;20179;-67
2021/12/22 00:23:41;;;;;;;33.73;19.47;;;;;;;-4.97;100.00;95971.13;4999210;28;20278;-67
2021/12/22 00:26:07;;;;;;;34.73;19.63;;;;;;;-4.93;100.00;95978.25;4999120;28;20290;-67
2021/12/22 00:28:33;;;;;;;35.97;19.97;;;;;;;-4.94;100.00;95971.38;4999013;28;20225;-68
2021/12/22 00:30:59;;;;;;;38.30;21.33;;;;;;;-4.95;100.00;95972.41;5015347;28;20277;-70
2021/12/22 00:33:27;;;;;;;35.97;20.80;;;;;;;-4.95;100.00;95976.97;4998507;28;20222;-69
2021/12/22 00:35:53;;;;;;;35.13;20.33;;;;;;;-4.97;100.00;95977.25;4998812;28;20218;-83
2021/12/22 00:38:20;;;;;;;36.40;21.03;;;;;;;-4.99;100.00;95973.31;4998504;28;20182;-61
2021/12/22 00:40:47;;;;;;;35.90;21.27;;;;;;;-5.02;100.00;95974.69;5015815;28;20190;-61
2021/12/22 00:43:15;;;;;;;34.20;20.60;;;;;;;-5.04;100.00;95976.84;5014802;28;20203;-60
2021/12/22 00:45:40;;;;;;;38.77;21.33;;;;;;;-5.08;100.00;95967.88;5014639;28;20202;-59
2021/12/22 00:48:09;;;;;;;40.63;21.70;;;;;;;-5.15;100.00;95970.09;4998560;28;20194;-61
2021/12/22 00:50:36;;;;;;;36.43;21.30;;;;;;;-5.14;100.00;95974.34;5015302;28;20266;-59
2021/12/22 00:53:01;;;;;;;38.77;22.17;;;;;;;-5.17;100.00;95966.91;4998583;28;20276;-64
2021/12/22 00:55:27;;;;;;;40.23;22.50;;;;;;;-5.18;100.00;95976.00;5014712;28;20665;-59
2021/12/22 00:57:52;;;;;;;38.63;22.50;;;;;;;-5.21;100.00;95971.25;4998453;28;20198;-70
2021/12/22 01:00:21;;;;;;;42.20;23.63;;;;;;;-5.23;100.00;95968.09;4998339;28;20214;-70
2021/12/22 01:02:47;;;;;;;45.20;24.37;;;;;;;-5.27;100.00;95983.06;5014492;28;20199;-70
2021/12/22 01:05:15;;;;;;;39.77;23.30;;;;;;;-5.30;100.00;95975.66;4998246;28;20247;-70
2021/12/22 01:07:43;;;;;;;33.33;21.10;;;;;;;-5.32;100.00;95974.38;5014577;28;20191;-70
2021/12/22 01:10:09;;;;;;;41.90;23.13;;;;;;;-5.35;100.00;95980.25;4998047;28;20285;-69
2021/12/22 01:12:35;;;;;;;36.80;20.90;;;;;;;-5.36;100.00;95984.78;4998783;28;20197;-83
2021/12/22 01:15:00;;;;;;;37.30;21.50;;;;;;;-5.36;100.00;95987.44;4998416;28;20207;-64
2021/12/22 01:17:34;;;;;;;36.67;20.37;;;;;;;-5.42;100.00;95985.94;4997941;28;20188;-64
2021/12/22 01:20:06;;;;;;;42.70;22.27;;;;;;;-5.45;100.00;95985.72;4998450;28;20202;-64
2021/12/22 01:25:02;;;;;;;33.93;20.50;;;;;;;-5.54;100.00;96000.75;5014934;28;20237;-66
2021/12/22 01:27:34;;;;;;;36.33;19.47;;;;;;;-5.57;100.00;95999.44;4998184;28;20217;-64
2021/12/22 01:30:00;;;;;;;34.67;20.57;;;;;;;-5.58;100.00;96005.84;4997738;28;20209;-83
2021/12/22 01:32:26;;;;;;;35.10;21.07;;;;;;;-5.61;100.00;96006.41;4997939;28;20218;-69
2021/12/22 01:34:51;;;;;;;38.07;21.80;;;;;;;-5.65;100.00;96001.97;4997713;28;20192;-59
2021/12/22 01:37:17;;;;;;;39.37;20.30;;;;;;;-5.73;100.00;96000.72;4997512;28;20184;-59
2021/12/22 01:39:42;;;;;;;34.03;19.93;;;;;;;-5.72;100.00;96007.59;4997300;28;20184;-59
2021/12/22 01:42:08;;;;;;;34.23;19.83;;;;;;;-5.72;100.00;95999.63;4998098;28;20187;-61
2021/12/22 01:45:00;;;;;;;35.90;20.10;;;;;;;-5.71;100.00;96000.44;4997952;28;20265;-59
2021/12/22 01:50:15;;;;;;;35.70;20.03;;;;;;;-5.85;100.00;96013.69;5015539;28;20217;-60
2021/12/22 01:52:40;;;;;;;36.00;19.67;;;;;;;-5.92;100.00;96013.22;4997564;28;20191;-61
2021/12/22 01:55:23;;;;;;;37.00;20.20;;;;;;;-5.96;100.00;96001.59;4997426;28;20238;-61
2021/12/22 01:57:49;;;;;;;32.87;19.20;;;;;;;-5.97;100.00;96005.31;4997197;28;20282;-61
2021/12/22 02:00:17;;;;;;;33.27;18.60;;;;;;;-5.99;100.00;96002.16;4997290;28;20210;-61
2021/12/22 02:02:42;;;;;;;28.80;18.03;;;;;;;-6.00;100.00;96003.22;4997581;28;20190;-61
2021/12/22 02:05:08;;;;;;;27.17;17.10;;;;;;;-5.99;100.00;95996.81;4997438;28;20191;-62
2021/12/22 02:07:34;;;;;;;29.70;18.13;;;;;;;-6.00;100.00;95995.25;4997685;28;20186;-68
2021/12/22 02:10:07;;;;;;;28.50;17.07;;;;;;;-6.00;100.00;95989.94;4997651;28;20192;-60
2021/12/22 02:12:37;;;;;;;30.90;18.03;;;;;;;-6.00;100.00;95989.94;4997405;28;20632;-61
2021/12/22 02:15:05;;;;;;;30.50;17.70;;;;;;;-6.00;100.00;95997.13;4997792;28;20205;-61
2021/12/22 02:17:30;;;;;;;31.03;17.43;;;;;;;-6.00;100.00;95997.13;4997536;28;20192;-61
2021/12/22 02:19:56;;;;;;;27.07;16.93;;;;;;;-6.03;100.00;95995.00;4997338;28;20200;-61
2021/12/22 02:22:22;;;;;;;29.47;16.90;;;;;;;-6.11;100.00;95990.34;4997235;28;20191;-62
2021/12/22 02:24:59;;;;;;;31.97;17.43;;;;;;;-6.10;100.00;95984.75;4997480;28;20448;-62
2021/12/22 02:30:26;;;;;;;30.97;17.07;;;;;;;-6.10;100.00;95984.75;5010011;28;20230;-60
2021/12/22 02:35:25;;;;;;;30.77;17.13;;;;;;;-6.13;100.00;95985.31;5014578;28;20222;-61
2021/12/22 02:37:50;;;;;;;33.00;17.37;;;;;;;-6.14;100.00;95994.34;5014642;28;20179;-60
2021/12/22 02:40:18;;;;;;;31.20;16.40;;;;;;;-6.13;100.00;95995.16;4997133;28;20197;-61
2021/12/22 02:42:46;;;;;;;29.50;17.70;;;;;;;-6.12;100.00;96008.13;4997021;28;20191;-61
2021/12/22 02:45:15;;;;;;;29.53;16.90;;;;;;;-6.12;100.00;96002.81;4997079;28;20585;-63
2021/12/22 02:47:41;;;;;;;31.67;16.73;;;;;;;-6.13;100.00;96005.78;4997063;28;20524;-64
2021/12/22 02:50:09;;;;;;;28.07;16.17;;;;;;;-6.17;100.00;96004.75;4997049;28;20179;-64
2021/12/22 02:52:52;;;;;;;28.83;16.27;;;;;;;-6.21;100.00;96009.84;4996945;28;20187;-63
2021/12/22 02:55:20;;;;;;;29.77;17.23;;;;;;;-6.29;100.00;96009.66;5013605;28;20227;-63
2021/12/22 02:57:48;;;;;;;30.10;16.67;;;;;;;-6.34;100.00;95994.56;4996949;28;20245;-64
2021/12/22 03:00:34;;;;;;;27.50;16.33;;;;;;;-6.33;100.00;96008.66;4996836;28;20261;-64
2021/12/22 03:03:09;;;;;;;31.50;17.17;;;;;;;-6.37;100.00;96000.47;5013328;28;20195;-80
2021/12/22 03:05:37;;;;;;;28.80;15.17;;;;;;;-6.31;100.00;95999.31;4997682;28;20187;-60
2021/12/22 03:08:03;;;;;;;25.40;14.80;;;;;;;-6.27;100.00;96003.00;4997530;28;20219;-61
2021/12/22 03:10:29;;;;;;;27.90;16.47;;;;;;;-6.28;100.00;95998.75;5017061;28;20191;-61
2021/12/22 03:13:01;;;;;;;28.57;16.67;;;;;;;-6.32;100.00;96002.25;5000851;28;20194;-60
2021/12/22 03:15:26;;;;;;;26.47;15.47;;;;;;;-6.38;100.00;95996.19;5000811;28;20211;-61
2021/12/22 03:17:52;;;;;;;28.83;16.20;;;;;;;-6.41;100.00;95990.69;5016568;28;20205;-60
2021/12/22 03:20:17;;;;;;;27.77;17.03;;;;;;;-6.43;100.00;95985.66;5000407;28;20171;-64
2021/12/22 03:22:45;;;;;;;31.17;17.37;;;;;;;-6.45;100.00;95995.75;5001389;28;20241;-84
2021/12/22 03:25:17;;;;;;;31.10;17.07;;;;;;;-6.47;100.00;95999.75;5016412;28;20640;-60
2021/12/22 03:27:50;;;;;;;28.37;15.97;;;;;;;-6.50;100.00;95995.81;5000564;28;20191;-61
2021/12/22 03:30:19;;;;;;;26.63;15.57;;;;;;;-6.53;100.00;95996.38;5000361;28;20249;-60
2021/12/22 03:32:44;;;;;;;26.57;15.87;;;;;;;-6.55;100.00;96009.13;4999758;28;20253;-63
2021/12/22 03:35:17;;;;;;;26.13;15.63;;;;;;;-6.56;100.00;96004.88;4999975;28;20203;-63
2021/12/22 03:37:45;;;;;;;26.83;15.90;;;;;;;-6.55;100.00;96006.50;5000482;28;20233;-63
2021/12/22 03:40:11;;;;;;;28.40;16.50;;;;;;;-6.54;100.00;96000.09;4999907;28;20179;-70
2021/12/22 03:42:36;;;;;;;28.07;15.33;;;;;;;-6.53;100.00;95990.28;4999238;28;20543;-60
2021/12/22 03:45:02;;;;;;;29.30;15.63;;;;;;;-6.55;100.00;95997.72;5000185;28;20214;-61
2021/12/22 03:47:28;;;;;;;26.47;15.80;;;;;;;-6.58;100.00;96001.72;5016649;28;20555;-61
2021/12/22 03:49:53;;;;;;;27.53;15.20;;;;;;;-6.62;100.00;95998.06;5015753;28;20217;-61
2021/12/22 03:52:19;;;;;;;26.37;14.80;;;;;;;-6.63;100.00;96007.06;4999748;28;20668;-61
2021/12/22 03:54:44;;;;;;;27.00;15.07;;;;;;;-6.65;100.00;96003.13;4999859;28;20611;-61
2021/12/22 03:57:09;;;;;;;23.00;14.67;;;;;;;-6.67;100.00;96000.75;4999881;28;20614;-64
2021/12/22 03:59:35;;;;;;;28.23;14.63;;;;;;;-6.68;100.00;96001.81;5015963;28;20183;-69
2021/12/22 04:02:00;;;;;;;24.43;14.77;;;;;;;-6.74;100.00;96005.59;4999335;28;20191;-67
2021/12/22 04:04:26;;;;;;;21.60;13.07;;;;;;;-6.74;100.00;96020.72;5015575;28;20229;-65
2021/12/22 04:06:51;;;;;;;23.27;13.23;;;;;;;-6.78;100.00;96015.19;4999277;28;20196;-66
2021/12/22 04:09:17;;;;;;;22.27;13.37;;;;;;;-6.78;100.00;96015.19;4999440;28;20191;-65
2021/12/22 04:11:44;;;;;;;23.00;13.70;;;;;;;-6.81;100.00;96014.97;4999215;28;20198;-66
2021/12/22 04:14:12;;;;;;;25.13;13.83;;;;;;;-6.84;100.00;96015.50;4999174;28;20589;-68
2021/12/22 04:16:37;;;;;;;23.63;13.63;;;;;;;-6.84;100.00;96021.63;4999572;28;20207;-66
2021/12/22 04:19:03;;;;;;;23.00;13.03;;;;;;;-6.85;100.00;96020.00;4999602;28;20194;-59
2021/12/22 04:21:30;;;;;;;25.63;13.43;;;;;;;-6.84;100.00;96018.16;5014978;28;20196;-59
2021/12/22 04:23:56;;;;;;;27.37;12.93;;;;;;;-6.85;100.00;96020.00;5015320;28;20194;-59
2021/12/22 04:26:22;;;;;;;23.33;12.70;;;;;;;-6.82;100.00;96024.78;4998908;28;20270;-58
2021/12/22 04:28:47;;;;;;;19.93;11.80;;;;;;;-6.78;100.00;96028.44;4999292;28;20274;-59
2021/12/22 04:31:13;;;;;;;21.97;12.33;;;;;;;-6.75;100.00;96029.78;4998730;28;20209;-59
2021/12/22 04:33:38;;;;;;;28.07;12.77;;;;;;;-6.72;100.00;96031.84;5015561;28;20199;-58
2021/12/22 04:36:04;;;;;;;23.87;13.23;;;;;;;-6.66;100.00;96039.50;4998478;28;20222;-67
2021/12/22 04:38:29;;;;;;;22.47;12.63;;;;;;;-6.65;100.00;96034.97;4998983;28;20199;-69
2021/12/22 04:40:54;;;;;;;21.10;12.57;;;;;;;-6.65;100.00;96038.44;4998902;28;20229;-68
2021/12/22 04:43:20;;;;;;;23.10;13.90;;;;;;;-6.60;100.00;96046.34;4998449;28;20636;-69
2021/12/22 04:45:45;;;;;;;24.90;13.13;;;;;;;-6.57;100.00;96029.84;4997996;28;20264;-68
2021/12/22 04:48:11;;;;;;;21.90;12.23;;;;;;;-6.41;100.00;96031.31;4998323;28;20294;-66
2021/12/22 04:50:37;;;;;;;23.00;13.37;;;;;;;-6.37;100.00;96032.34;4998378;28;20211;-68
2021/12/22 04:53:25;;;;;;;23.33;12.33;;;;;;;-6.34;100.00;96029.09;4999002;28;20286;-65
2021/12/22 04:55:51;;;;;;;24.80;13.77;;;;;;;-6.24;100.00;96036.19;5015072;28;20233;-64
2021/12/22 04:58:16;;;;;;;22.03;12.93;;;;;;;-6.15;100.00;96032.63;4998804;28;20635;-63
2021/12/22 05:00:43;;;;;;;21.40;12.53;;;;;;;-6.07;100.00;96037.31;5014756;28;20246;-64
2021/12/22 05:03:08;;;;;;;25.57;13.80;;;;;;;-5.97;100.00;96034.56;5014776;28;20191;-64
2021/12/22 05:05:34;;;;;;;24.13;12.70;;;;;;;-5.88;100.00;96027.53;4998641;28;20584;-64
2021/12/22 05:08:00;;;;;;;25.70;14.53;;;;;;;-5.81;100.00;96027.16;4998077;28;20187;-64
2021/12/22 05:10:26;;;;;;;22.13;12.77;;;;;;;-5.75;100.00;96021.50;4998286;28;20200;-64
2021/12/22 05:12:52;;;;;;;21.47;12.80;;;;;;;-5.66;100.00;96033.06;4998396;28;20184;-69
2021/12/22 05:15:21;;;;;;;23.73;13.80;;;;;;;-5.59;100.00;96028.19;4997896;28;20552;-72
2021/12/22 05:20:16;;;;;;;24.60;14.63;;;;;;;-5.41;100.00;96038.06;5015444;28;20199;-71
2021/12/22 05:22:41;;;;;;;25.97;13.43;;;;;;;-5.37;100.00;96036.41;4998317;28;20183;-68
2021/12/22 05:25:10;;;;;;;25.07;13.83;;;;;;;-5.32;100.00;96033.66;4997841;28;20198;-68
2021/12/22 05:27:35;;;;;;;22.43;13.27;;;;;;;-5.26;100.00;96027.22;4997911;28;20184;-70
2021/12/22 05:30:04;;;;;;;24.90;14.77;;;;;;;-5.22;100.00;96019.44;5014033;28;20197;-67
2021/12/22 05:32:32;;;;;;;22.93;13.40;;;;;;;-5.18;100.00;96023.88;4996967;28;20261;-65
2021/12/22 05:34:59;;;;;;;25.87;14.73;;;;;;;-5.11;100.00;96021.66;5015031;28;20198;-68
2021/12/22 05:37:25;;;;;;;22.57;13.40;;;;;;;-5.08;100.00;96029.06;5013667;28;20183;-62
2021/12/22 05:39:51;;;;;;;23.50;14.60;;;;;;;-5.03;100.00;96026.31;5013652;28;20193;-64
2021/12/22 05:42:16;;;;;;;25.03;14.30;;;;;;;-4.99;100.00;96021.22;5013892;28;20195;-65
2021/12/22 05:44:42;;;;;;;26.87;15.67;;;;;;;-4.93;100.00;96020.84;4997596;28;20190;-60
2021/12/22 05:47:08;;;;;;;22.90;14.63;;;;;;;-4.89;100.00;96027.19;4997627;28;20525;-64
2021/12/22 05:49:33;;;;;;;25.73;14.77;;;;;;;-4.83;100.00;96011.91;4997717;28;20202;-60
2021/12/22 05:51:58;;;;;;;23.77;14.90;;;;;;;-4.75;100.00;96020.03;4997471;28;20302;-59
2021/12/22 05:54:24;;;;;;;25.30;15.20;;;;;;;-4.70;100.00;96011.94;4997798;28;20223;-60
2021/12/22 05:56:49;;;;;;;24.93;15.23;;;;;;;-4.65;100.00;96017.22;4997113;28;20471;-59
2021/12/22 05:59:14;;;;;;;26.73;15.63;;;;;;;-4.60;100.00;96018.97;4997774;28;20233;-59
2021/12/22 06:01:40;;;;;;;27.07;15.60;;;;;;;-4.57;100.00;96019.19;4997423;28;20187;-59
2021/12/22 06:04:06;;;;;;;27.73;15.93;;;;;;;-4.50;100.00;96019.63;4997178;28;20198;-59
2021/12/22 06:06:32;;;;;;;26.87;15.77;;;;;;;-4.44;100.00;96012.31;4997242;28;20195;-62
2021/12/22 06:08:57;;;;;;;31.50;16.00;;;;;;;-4.39;100.00;96020.22;4997736;28;20191;-72
2021/12/22 06:11:22;;;;;;;27.00;15.77;;;;;;;-4.37;100.00;96015.41;4997219;28;20270;-75
2021/12/22 06:13:48;;;;;;;26.93;16.20;;;;;;;-4.34;100.00;96018.25;4997259;28;20552;-78
2021/12/22 06:16:13;;;;;;;25.77;15.20;;;;;;;-4.28;100.00;96014.44;4997493;28;20293;-77
2021/12/22 06:18:43;;;;;;;27.03;15.27;;;;;;;-4.24;100.00;96018.06;4997345;28;20237;-78
2021/12/22 06:21:10;;;;;;;24.73;15.63;;;;;;;-4.24;100.00;96020.75;4998152;28;20183;-80
2021/12/22 06:23:35;;;;;;;25.23;15.87;;;;;;;-4.16;100.00;96020.06;5014252;28;20293;-78
2021/12/22 06:26:00;;;;;;;25.03;15.20;;;;;;;-4.15;100.00;96026.19;5013559;28;20203;-60
2021/12/22 06:28:26;;;;;;;30.23;16.63;;;;;;;-4.12;100.00;96017.56;4997481;28;20191;-71
2021/12/22 06:30:51;;;;;;;25.50;14.87;;;;;;;-4.16;100.00;96020.06;4997150;28;20188;-71
2021/12/22 06:33:16;;;;;;;27.73;16.70;;;;;;;-4.13;100.00;96024.00;4997100;28;20298;-69
2021/12/22 06:35:41;;;;;;;29.70;16.53;;;;;;;-4.11;100.00;96022.63;4997803;28;20272;-71
2021/12/22 06:38:07;;;;;;;27.67;15.93;;;;;;;-4.11;100.00;96027.94;4997113;28;20180;-72
2021/12/22 06:40:33;;;;;;;24.33;15.40;;;;;;;-4.08;100.00;96015.94;4996584;28;20227;-70
2021/12/22 06:42:58;;;;;;;26.60;15.97;;;;;;;-4.06;100.00;96016.41;4997262;28;20261;-63
2021/12/22 06:45:24;;;;;;;26.93;16.43;;;;;;;-4.09;100.00;96015.13;5017256;28;20179;-63
2021/12/22 06:47:52;;;;;;;28.90;15.83;;;;;;;-4.10;100.00;96024.22;5001572;28;20195;-60
2021/12/22 06:50:18;;;;;;;28.33;16.33;;;;;;;-4.02;100.00;96028.84;5016889;28;20183;-60
2021/12/22 06:52:43;;;;;;;23.03;14.10;;;;;;;-4.06;100.00;96025.19;5000879;28;20187;-60
2021/12/22 06:55:09;;;;;;;26.10;15.47;;;;;;;-4.05;100.00;96024.13;5000490;28;20183;-60
2021/12/22 06:57:34;;;;;;;26.40;15.37;;;;;;;-4.02;100.00;96031.53;5016982;28;20194;-60
2021/12/22 07:00:02;;;;;;;25.13;15.00;;;;;;;-4.02;100.00;96036.06;5017378;28;20191;-62
2021/12/22 07:02:27;;;;;;;24.87;15.13;;;;;;;-4.03;100.00;96029.94;5000616;28;20195;-67
2021/12/22 07:04:53;;;;;;;26.43;16.57;;;;;;;-4.00;100.00;96028.56;4977366;28;20277;-65
2021/12/22 07:07:18;;;;;;;25.50;15.63;;;;;;;-4.00;100.00;96034.66;4961145;28;20251;-66
2021/12/22 07:09:43;;;;;;;25.73;15.43;;;;;;;-4.00;100.00;96026.66;4961146;28;20557;-66
2021/12/22 07:12:10;;;;;;;27.33;15.87;;;;;;;-3.96;100.00;96027.66;4960635;28;20277;-65
2021/12/22 07:14:36;;;;;;;26.53;16.20;;;;;;;-3.97;100.00;96028.75;4960633;28;20211;-64
2021/12/22 07:17:01;;;;;;;28.00;15.27;;;;;;;-4.01;100.00;96035.75;4961082;28;20212;-65
2021/12/22 07:19:27;;;;;;;24.50;14.87;;;;;;;-3.98;100.00;96037.84;4960923;28;20255;-65
2021/12/22 07:21:53;;;;;;;24.27;15.20;;;;;;;-3.93;100.00;96034.31;4961085;28;20293;-60
2021/12/22 07:24:19;;;;;;;28.03;16.27;;;;;;;-3.90;100.00;96039.81;4960792;28;20243;-65
2021/12/22 07:26:44;;;;;;;23.47;15.63;;;;;;;-3.92;100.00;96019.88;4960319;28;20197;-66
2021/12/22 07:29:09;;;;;;;27.50;15.90;;;;;;;-3.90;100.00;96029.16;4960613;28;20247;-66
2021/12/22 07:31:35;;;;;;;25.80;14.90;;;;;;;-3.87;100.00;96027.75;4960264;28;20220;-65
2021/12/22 07:34:10;;;;;;;28.97;16.30;;;;;;;-3.77;100.00;96031.03;4960324;28;20228;-65
2021/12/22 07:36:42;;;;;;;25.87;15.73;;;;;;;-3.77;100.00;96044.38;4992270;28;20226;-65
2021/12/22 07:39:07;;;;;;;28.33;16.17;;;;;;;-3.78;100.00;96045.44;5016864;28;20191;-64
2021/12/22 07:41:33;;;;;;;29.57;17.20;;;;;;;-3.75;100.00;96039.53;5000243;28;20555;-71
2021/12/22 07:43:58;;;;;;;24.97;14.37;;;;;;;-3.83;100.00;96037.56;5000222;28;20183;-70
2021/12/22 07:46:24;;;;;;;30.30;16.77;;;;;;;-3.82;100.00;96036.47;4999796;28;20234;-70
2021/12/22 07:48:49;;;;;;;25.33;15.43;;;;;;;-3.82;100.00;96041.78;4999754;28;20218;-71
2021/12/22 07:51:15;;;;;;;27.57;15.97;;;;;;;-3.81;100.00;96031.91;5015936;28;20191;-71
2021/12/22 07:53:40;;;;;;;28.87;16.27;;;;;;;-3.80;100.00;96028.97;4999602;28;20191;-71
2021/12/22 07:56:06;;;;;;;26.23;15.73;;;;;;;-3.75;100.00;96042.19;5014377;28;20219;-72
2021/12/22 07:58:32;;;;;;;28.10;16.97;;;;;;;-3.72;100.00;96040.81;4999854;28;20187;-68
2021/12/22 08:00:58;;;;;;;27.47;16.70;;;;;;;-3.69;100.00;96046.34;5015775;28;20233;-73
2021/12/22 08:03:24;;;;;;;29.70;16.27;;;;;;;-3.63;100.00;96034.50;4999777;28;20256;-76
2021/12/22 08:05:51;;;;;;;26.57;16.30;;;;;;;-3.59;100.00;96032.81;4999345;28;20195;-76
2021/12/22 08:08:18;;;;;;;29.27;16.20;;;;;;;-3.58;100.00;96037.06;4999345;28;20225;-74
2021/12/22 08:10:44;;;;;;;25.93;15.63;;;;;;;-3.52;100.00;96043.06;4999806;28;20179;-73
2021/12/22 08:13:09;;;;;;;24.07;14.67;;;;;;;-3.51;100.00;96034.78;4999115;28;20184;-73
2021/12/22 08:15:35;;;;;;;27.60;15.50;;;;;;;-3.49;100.00;96045.91;4999314;28;20536;-65
2021/12/22 08:18:00;;;;;;;25.00;15.33;;;;;;;-3.63;100.00;96050.50;4999660;28;20215;-73
2021/12/22 08:20:26;;;;;;;27.53;15.27;;;;;;;-3.59;100.00;96051.50;4999511;28;20203;-63
2021/12/22 08:22:52;;;;;;;25.17;15.80;;;;;;;-3.53;100.00;96046.84;5015255;28;20183;-64
2021/12/22 08:25:18;;;;;;;41.10;22.77;;;;;;;-3.38;100.00;96047.28;4999175;28;20187;-64
2021/12/22 08:27:43;;;;;;;26.13;15.30;;;;;;;-3.38;100.00;96056.41;4999015;28;20541;-63
2021/12/22 08:30:09;;;;;;;23.43;14.57;;;;;;;-3.36;100.00;96055.00;5015587;28;20187;-64
2021/12/22 08:32:36;;;;;;;26.93;15.00;;;;;;;-3.32;100.00;96055.97;4999158;28;20218;-63
2021/12/22 08:35:04;;;;;;;24.00;14.53;;;;;;;-3.42;100.00;96067.66;5015118;28;20270;-71
2021/12/22 08:40:17;;;;;;;28.73;15.37;;;;;;;-3.28;100.00;96074.88;5016562;28;20193;-74
2021/12/22 08:42:44;;;;;;;26.93;15.97;;;;;;;-3.25;100.00;96071.63;4998849;28;20191;-74
2021/12/22 08:45:11;;;;;;;24.87;15.33;;;;;;;-3.23;100.00;96064.09;5015250;28;20655;-73
2021/12/22 08:47:36;;;;;;;29.90;15.73;;;;;;;-3.13;100.00;96062.00;5015108;28;20183;-74
2021/12/22 08:50:03;;;;;;;25.37;15.57;;;;;;;-3.01;100.00;96061.47;4998508;28;20197;-73
2021/12/22 08:52:28;;;;;;;25.67;15.93;;;;;;;-2.87;100.00;96056.88;4998155;28;20202;-72
2021/12/22 08:54:53;;;;;;;25.20;15.00;;;;;;;-2.89;100.00;96067.06;4998413;28;20183;-64
2021/12/22 08:57:19;;;;;;;28.43;15.50;;;;;;;-2.84;100.00;96066.97;4998487;28;20214;-65
2021/12/22 08:59:44;;;;;;;24.60;13.80;;;;;;;-2.88;100.00;96071.34;4998381;28;20199;-64
2021/12/22 09:02:10;;;;;;;24.90;15.00;;;;;;;-2.90;100.00;96073.50;4998616;28;20270;-65
2021/12/22 09:04:36;;;;;;;27.20;15.70;;;;;;;-2.94;100.00;96075.19;4998715;28;20195;-64
2021/12/22 09:07:02;;;;;;;24.23;15.40;;;;;;;-2.91;100.00;96072.72;4998300;28;20184;-64
2021/12/22 09:09:27;;;;;;;27.63;16.17;;;;;;;-2.86;100.00;96069.94;5015290;28;20214;-64
2021/12/22 09:11:53;;;;;;;28.03;15.83;;;;;;;-2.87;100.00;96073.69;4998363;28;20222;-64
2021/12/22 09:14:19;;;;;;;24.80;15.50;;;;;;;-2.90;100.00;96078.84;4997954;28;20191;-64
2021/12/22 09:16:45;;;;;;;26.37;15.33;;;;;;;-2.86;100.00;96082.50;5014647;28;20229;-64
2021/12/22 09:19:11;;;;;;;25.47;15.57;;;;;;;-2.89;100.00;96075.88;4997856;28;20628;-64
2021/12/22 09:21:37;;;;;;;22.43;14.20;;;;;;;-2.99;100.00;96080.66;4998267;28;20191;-64
2021/12/22 09:24:05;;;;;;;21.57;14.37;;;;;;;-3.02;100.00;96082.06;5014694;28;20191;-64
2021/12/22 09:26:30;;;;;;;22.60;13.70;;;;;;;-3.11;100.00;96085.69;4997473;28;20218;-64
2021/12/22 09:28:57;;;;;;;26.23;15.50;;;;;;;-3.11;100.00;96081.16;4997870;28;20195;-63
2021/12/22 09:31:23;;;;;;;24.63;14.53;;;;;;;-3.02;100.00;96084.72;5014540;28;20245;-64
2021/12/22 09:33:48;;;;;;;24.90;14.97;;;;;;;-2.86;100.00;96090.50;4997504;28;20238;-65
2021/12/22 09:36:15;;;;;;;24.03;15.17;;;;;;;-2.82;100.00;96094.16;4997953;28;20306;-66
2021/12/22 09:38:41;;;;;;;25.70;15.53;;;;;;;-2.74;100.00;96094.22;4997766;28;20187;-65
2021/12/22 09:41:08;;;;;;;22.77;15.17;;;;;;;-2.71;100.00;96090.97;4997955;28;20622;-66
2021/12/22 09:43:35;;;;;;;22.93;15.20;;;;;;;-2.75;100.00;96087.31;4997702;28;20214;-65
2021/12/22 09:46:05;;;;;;;25.77;15.83;;;;;;;-2.66;100.00;96084.72;4997392;28;20187;-65
2021/12/22 09:48:58;;;;;;;27.63;14.97;;;;;;;-2.78;100.00;96092.44;5014212;28;20214;-64
2021/12/22 09:53:53;;;;;;;26.03;15.17;;;;;;;-2.95;100.00;96086.97;5014827;28;20274;-65
2021/12/22 09:56:23;;;;;;;25.83;14.70;;;;;;;-2.93;100.00;96076.75;5013849;28;20234;-66
2021/12/22 09:58:49;;;;;;;27.53;15.47;;;;;;;-2.81;100.00;96071.72;5014261;28;20570;-65
2021/12/22 10:01:21;;;;;;;26.80;15.90;;;;;;;-2.67;100.00;96064.41;4997355;28;20218;-65
2021/12/22 10:03:46;;;;;;;23.97;15.00;;;;;;;-2.61;100.00;96072.03;4997954;28;20566;-65
2021/12/22 10:06:11;;;;;;;27.43;15.20;;;;;;;-2.56;100.00;96073.78;4997699;28;20190;-65
2021/12/22 10:08:50;;;;;;;35.33;15.20;;;;;;;-2.58;100.00;96071.44;4997207;28;20636;-62
2021/12/22 10:11:16;;;;;;;25.20;14.97;;;;;;;-2.41;100.00;96076.09;5014230;28;20187;-65
2021/12/22 10:13:44;;;;;;;30.63;16.23;;;;;;;-2.44;100.00;96064.13;4997312;28;20187;-65
2021/12/22 10:16:23;;;;;;;25.10;14.97;;;;;;;-2.35;100.00;96069.53;4997040;28;20234;-65
2021/12/22 10:19:03;;;;;;;28.97;16.53;;;;;;;-2.06;100.00;96073.34;4999350;28;20189;-65
2021/12/22 10:21:29;;;;;;;28.63;16.40;;;;;;;-1.81;100.00;96058.50;5001909;28;20206;-65
2021/12/22 10:23:54;;;;;;;26.20;14.93;;;;;;;-1.61;100.00;96063.28;5001260;28;20191;-65
2021/12/22 10:26:25;;;;;;;28.70;15.97;;;;;;;-1.48;100.00;96062.41;5017361;28;20232;-61
2021/12/22 10:28:59;;;;;;;26.83;14.77;;;;;;;-1.36;100.00;96054.56;5001117;28;20190;-70
2021/12/22 10:31:38;;;;;;;24.77;15.07;;;;;;;-1.32;100.00;96040.25;5017528;28;20353;-70
2021/12/22 10:34:06;;;;;;;30.40;16.27;;;;;;;-1.08;100.00;96045.97;5001336;28;20198;-70
2021/12/22 10:36:43;;;;;;;23.10;14.50;;;;;;;-1.07;100.00;96036.81;5001051;28;20218;-71
2021/12/22 10:39:17;;;;;;;27.10;14.87;;;;;;;-1.14;100.00;96041.84;5017264;28;20191;-71
2021/12/22 10:41:42;;;;;;;23.67;14.43;;;;;;;-1.41;100.00;96030.63;5017818;28;20198;-70
2021/12/22 10:44:08;;;;;;;22.60;13.53;;;;;;;-1.62;100.00;96034.97;5000830;28;20195;-65
2021/12/22 10:46:35;;;;;;;25.10;15.43;;;;;;;-1.95;100.00;96031.06;5000841;28;20241;-70
2021/12/22 10:49:20;;;;;;;25.13;14.83;;;;;;;-1.95;100.00;96026.50;5001245;28;20195;-70
2021/12/22 10:51:59;;;;;;;26.50;15.10;;;;;;;-1.84;100.00;96022.44;5000933;28;20198;-71
2021/12/22 10:54:38;;;;;;;23.50;15.20;;;;;;;-1.95;100.00;96015.00;5000799;28;20187;-70
2021/12/22 10:57:09;;;;;;;24.33;14.03;;;;;;;-2.03;100.00;96010.41;5000815;28;20278;-70
2021/12/22 10:59:49;;;;;;;23.53;14.80;;;;;;;-2.01;100.00;96003.66;5000215;28;20672;-70
2021/12/22 11:02:27;;;;;;;21.20;13.93;;;;;;;-2.01;100.00;96005.56;5016825;28;20241;-61
2021/12/22 11:04:53;;;;;;;25.23;14.77;;;;;;;-1.77;100.00;95995.25;5017165;28;20183;-73
2021/12/22 11:07:27;;;;;;;25.50;14.90;;;;;;;-1.90;100.00;95996.91;5000780;28;20194;-73
2021/12/22 11:09:53;;;;;;;26.73;15.27;;;;;;;-1.83;100.00;95996.47;5016676;28;20195;-73
2021/12/22 11:12:36;;;;;;;23.60;15.33;;;;;;;-1.77;100.00;95996.03;5000321;28;20244;-73
2021/12/22 11:15:03;;;;;;;24.20;14.00;;;;;;;-1.69;100.00;95994.47;5017010;28;20198;-73
2021/12/22 11:17:29;;;;;;;24.57;14.40;;;;;;;-1.35;100.00;95991.88;4999813;28;20265;-73
2021/12/22 11:19:58;;;;;;;22.73;13.90;;;;;;;-1.21;100.00;95987.97;5017464;28;20226;-65
2021/12/22 11:22:50;;;;;;;23.27;14.83;;;;;;;-1.46;100.00;95969.19;5000675;28;20219;-73
2021/12/22 11:25:15;;;;;;;20.70;13.53;;;;;;;-1.54;100.00;95977.97;5016930;28;20195;-73
2021/12/22 11:27:41;;;;;;;22.73;14.00;;;;;;;-1.48;100.00;95976.72;4999960;28;20595;-73
2021/12/22 11:30:07;;;;;;;22.83;14.10;;;;;;;-1.45;100.00;95970.75;4998647;28;20192;-73